• Join FlightAware (Why Join?)
  • Login
  • US Flag 
Rudolph Flight #1: Arrived! 
10:45AM EST


 

Airport Tracker/Info


-or-


 

Live Flight TrackerFlight Track Log ✈ N1944E ✈ 23-Aug-2013 ✈ KCOD - KBIL

Flight Track Log - Related Links

Times and Time Zones

All times are in EDT time to prevent confusion due to time zone crossing. See the N1944E flight status page for this flight to view local times or setup timezone preferences in your user account.

Time Position Orientation Groundspeed Altitude Reporting Facility
EDT Latitude Longitude Course Direction KTS MPH feet Rate Location/Type
07:28AM 44.5764 -108.9775 12° North 138 159 8,200  Level Salt Lake Center
07:29AM 44.6158 -108.9675 10° North 141 162 9,000 780 Climbing Salt Lake Center
07:30AM 44.6572 -108.9519 15° North 146 168 9,800 660 Climbing Salt Lake Center
07:31AM 44.7022 -108.9372 13° North 154 177 10,400 720 Climbing Salt Lake Center
07:32AM 44.7475 -108.9189 16° North 162 186 11,300 840 Climbing Salt Lake Center
07:33AM 44.7922 -108.9047 13° North 164 189 12,100 720 Climbing Salt Lake Center
07:34AM 44.7452 -108.9315 12° North  Level FlightAware Approximate
07:35AM 44.8378 -108.8883 14° North 166 191 12,800  Level Salt Lake Center
07:36AM 44.8858 -108.8708 14° North 172 198 13,100 120 Climbing Salt Lake Center
07:37AM 44.9406 -108.8525 13° North 187 215 13,100  Level Salt Lake Center
07:38AM 44.9961 -108.8325 14° North 197 227 13,100  Level Salt Lake Center
07:39AM 45.0503 -108.8128 14° North 200 230 13,100 -60 Level Salt Lake Center
07:40AM 45.1103 -108.7875 17° North 198 228 13,000 -360 Descending Salt Lake Center
07:41AM 45.1650 -108.7664 15° North 205 236 12,400 -540 Descending Salt Lake Center
07:42AM 45.2228 -108.7436 16° North 218 251 12,000 -240 Descending Salt Lake Center
07:43AM 45.2775 -108.7247 14° North 204 235 12,000  Level Salt Lake Center
07:44AM 45.3297 -108.7058 14° North 198 228 12,000 -300 Level Salt Lake Center
07:45AM 45.3878 -108.6875 13° North 198 228 11,500 -840 Descending Salt Lake Center
07:46AM 45.4472 -108.6744 North 216 249 10,400 -1,200 Descending Salt Lake Center
07:47AM 45.5061 -108.6500 16° North 223 257 9,200 -1,260 Descending Salt Lake Center
07:48AM 45.5650 -108.6283 14° North 220 253 7,900 -1,200 Descending Salt Lake Center
07:49AM 45.6197 -108.6089 14° North 208 239 6,900 -900 Descending Salt Lake Center
07:50AM 45.6717 -108.5886 15° North 198 228 6,100 -960 Descending Salt Lake Center
07:51AM 45.7203 -108.5483 30° Northeast 192 221 5,000 -840 Descending Salt Lake Center
07:52AM 45.7625 -108.5128 30° Northeast 177 204 4,500 -600 Descending Salt Lake Center
07:53AM 45.7944 -108.4936 23° Northeast 137 158 3,900 -600 Descending Salt Lake Center
07:55AM 45.8000 -108.5333 19° North  Level FlightAware Approximate